Time;durP1;ratioP1;P1;durP2;ratioP2;P2;SDS_P1;SDS_P2;PMS_P1;PMS_P2;Temp;Humidity;BMP_temperature;BMP_pressure;BME280_temperature;BME280_humidity;BME280_pressure;Samples;Min_cycle;Max_cycle;Signal;HPM_P1;HPM_P2
2021/12/05 00:24:33;;;;;;;5.12;1.72;;;;;;;11.83;67.34;100561.09;1877897;76;21014;-61
2021/12/05 00:27:09;;;;;;;12.53;1.87;;;;;;;11.82;67.26;100554.09;1877740;76;21018;-61
2021/12/05 00:29:48;;;;;;;6.15;1.30;;;;;;;11.78;68.03;100549.91;1877207;76;21641;-60
2021/12/05 00:32:17;;;;;;;;;;;;;;;11.74;68.17;100538.64;1874087;76;21148;-60
2021/12/05 00:35:07;;;;;;;6.35;1.52;;;;;;;11.71;68.51;100548.03;1872983;76;20124;-61
2021/12/05 00:45:57;;;;;;;3.58;1.20;;;;;;;11.60;68.57;100554.28;1821900;79;21065;-61
2021/12/05 00:51:25;;;;;;;5.47;2.12;;;;;;;11.56;68.75;100552.69;1821902;79;21131;-60
2021/12/05 00:54:20;;;;;;;4.72;1.82;;;;;;;11.53;68.74;100551.05;1817897;79;21531;-60
2021/12/05 00:56:25;;;;;;;4.33;1.70;;;;;;;11.49;69.05;100545.53;1833013;77;21098;-60
2021/12/05 01:01:58;;;;;;;3.17;1.32;;;;;;;11.40;70.73;100538.05;1839346;78;21139;-62
2021/12/05 01:04:35;;;;;;;5.08;1.50;;;;;;;11.37;70.83;100529.80;1835559;78;21105;-60
2021/12/05 01:12:15;;;;;;;5.80;1.75;;;;;;;11.31;71.99;100539.78;1855900;77;21120;-62
2021/12/05 01:14:58;;;;;;;5.12;1.42;;;;;;;11.31;72.07;100547.69;1855694;77;21159;-61
2021/12/05 01:17:08;;;;;;;4.45;1.52;;;;;;;11.35;71.83;100546.63;1852992;77;21485;-61
2021/12/05 01:19:37;;;;;;;6.67;1.90;;;;;;;11.39;73.05;100544.23;1857247;77;21078;-59
2021/12/05 01:22:12;;;;;;;5.05;1.60;;;;;;;11.39;72.92;100545.55;1857263;77;21552;-59
2021/12/05 01:25:00;;;;;;;6.90;1.95;;;;;;;11.34;73.00;100534.35;1857166;77;21516;-60
2021/12/05 01:30:24;;;;;;;6.28;2.10;;;;;;;11.16;74.28;100515.83;1820444;77;21183;-60
2021/12/05 01:33:11;;;;;;;5.40;2.70;;;;;;;11.07;74.94;100507.02;1854324;77;21225;-58
2021/12/05 01:38:27;;;;;;;3.75;1.67;;;;;;;10.98;75.62;100502.16;1892939;75;21048;-62
2021/12/05 01:49:48;;;;;;;7.15;1.70;;;;;;;10.99;77.28;100516.59;1894312;76;21107;-60
2021/12/05 01:55:02;;;;;;;4.08;1.90;;;;;;;11.02;77.20;100506.36;1894921;76;21017;-61
2021/12/05 02:02:56;;;;;;;7.75;2.40;;;;;;;10.94;77.57;100497.95;1886197;76;21071;-62
2021/12/05 02:08:08;;;;;;;5.20;2.10;;;;;;;10.91;77.74;100516.52;1855460;77;21542;-60
2021/12/05 02:40:29;;;;;;;3.27;1.80;;;;;;;10.66;83.69;100512.77;1844623;77;21223;-65
2021/12/05 02:45:25;;;;;;;1.47;1.27;;;;;;;10.62;85.28;100497.56;1844604;78;21068;-65
2021/12/05 02:47:54;;;;;;;4.22;2.12;;;;;;;10.61;85.83;100502.45;1844952;77;21052;-62
2021/12/05 02:50:26;;;;;;;2.67;1.45;;;;;;;10.60;86.34;100488.88;1844616;78;21173;-62
2021/12/05 02:52:59;;;;;;;4.22;1.55;;;;;;;10.58;86.30;100489.41;1844536;77;21134;-62
2021/12/05 02:55:37;;;;;;;4.78;1.72;;;;;;;10.53;85.70;100499.27;1844432;77;21105;-61
2021/12/05 02:58:02;;;;;;;5.47;1.80;;;;;;;10.53;85.30;100491.37;1846000;76;21523;-60
2021/12/05 03:00:54;;;;;;;3.83;1.60;;;;;;;10.51;85.17;100497.17;1851677;77;21499;-61
2021/12/05 03:03:20;;;;;;;5.53;2.02;;;;;;;10.47;85.19;100492.97;1849050;77;21068;-61
2021/12/05 03:05:55;;;;;;;2.98;1.90;;;;;;;10.43;85.12;100497.50;1851510;77;21065;-62
2021/12/05 03:08:23;;;;;;;4.90;1.85;;;;;;;10.47;84.92;100474.54;1851106;77;21033;-62
2021/12/05 03:10:54;;;;;;;5.28;2.33;;;;;;;10.47;84.80;100483.28;1851791;76;21048;-60
2021/12/05 03:13:23;;;;;;;4.15;2.00;;;;;;;10.48;84.67;100499.48;1851762;77;21104;-62
2021/12/05 03:15:52;;;;;;;7.90;2.40;;;;;;;10.48;84.60;100502.59;1851680;76;21530;-62
2021/12/05 03:18:21;;;;;;;4.65;2.02;;;;;;;10.51;84.59;100498.48;1851505;77;21552;-62
2021/12/05 03:20:51;;;;;;;4.75;2.80;;;;;;;10.53;84.62;100508.48;1851758;77;21040;-62
2021/12/05 03:23:20;;;;;;;4.97;1.98;;;;;;;10.56;84.61;100483.36;1847700;77;21052;-59
2021/12/05 03:25:50;;;;;;;5.72;2.30;;;;;;;10.56;84.54;100492.57;1844674;78;21566;-59
2021/12/05 03:28:20;;;;;;;3.50;1.67;;;;;;;10.59;84.46;100485.40;1844663;78;21049;-60
2021/12/05 03:30:49;;;;;;;5.42;2.52;;;;;;;10.65;84.43;100484.74;1844415;77;21028;-61
2021/12/05 03:33:18;;;;;;;2.37;1.55;;;;;;;10.69;84.19;100488.95;1845032;77;21048;-62
2021/12/05 03:35:47;;;;;;;3.62;1.90;;;;;;;10.72;84.03;100490.98;1846578;77;21135;-62
2021/12/05 03:38:16;;;;;;;4.55;1.80;;;;;;;10.77;83.96;100498.23;1847652;78;21023;-62
2021/12/05 03:40:46;;;;;;;4.50;2.08;;;;;;;10.82;83.56;100494.06;1847528;77;21075;-65
2021/12/05 03:43:19;;;;;;;3.60;1.80;;;;;;;10.88;83.25;100503.03;1847438;77;21189;-63
2021/12/05 03:45:51;;;;;;;3.77;2.27;;;;;;;10.97;82.87;100487.27;1847712;77;21474;-62
2021/12/05 03:48:23;;;;;;;7.55;2.75;;;;;;;11.00;82.52;100493.72;1852211;77;21048;-63
2021/12/05 03:50:53;;;;;;;3.65;1.90;;;;;;;11.03;82.34;100508.09;1857643;76;21115;-64
2021/12/05 03:53:24;;;;;;;6.42;2.22;;;;;;;11.03;82.21;100511.16;1857550;77;21134;-63
2021/12/05 03:55:56;;;;;;;6.17;2.70;;;;;;;11.01;81.98;100500.25;1857403;76;21176;-63
2021/12/05 03:58:28;;;;;;;5.20;2.47;;;;;;;10.97;82.13;100511.85;1853654;77;21063;-65
2021/12/05 04:01:00;;;;;;;4.47;1.70;;;;;;;10.94;82.39;100524.30;1847574;77;21158;-63
2021/12/05 04:03:31;;;;;;;7.80;2.60;;;;;;;10.93;82.73;100524.73;1847703;77;21067;-64
2021/12/05 04:06:01;;;;;;;4.78;1.98;;;;;;;10.92;82.63;100520.41;1847686;77;21035;-63
2021/12/05 04:08:32;;;;;;;4.58;1.98;;;;;;;10.92;82.85;100518.22;1847426;77;21573;-64
2021/12/05 04:11:03;;;;;;;7.30;2.60;;;;;;;10.93;82.87;100512.04;1847570;77;21498;-64
2021/12/05 04:13:32;;;;;;;9.73;2.47;;;;;;;10.91;82.98;100519.16;1852817;76;21490;-63
2021/12/05 04:16:04;;;;;;;6.95;3.00;;;;;;;10.92;82.99;100515.58;1857631;76;21055;-63
2021/12/05 04:18:33;;;;;;;3.60;2.10;;;;;;;10.94;83.07;100518.56;1857604;76;21506;-64
2021/12/05 04:21:03;;;;;;;3.77;2.20;;;;;;;10.94;82.98;100521.66;1857541;76;21589;-64
2021/12/05 04:23:32;;;;;;;6.75;2.75;;;;;;;10.96;83.03;100515.86;1857773;77;21463;-63
2021/12/05 04:26:02;;;;;;;8.30;2.33;;;;;;;10.97;83.02;100517.12;1857674;76;21051;-66
2021/12/05 04:28:32;;;;;;;5.53;2.25;;;;;;;11.00;83.03;100518.75;1851155;77;21143;-63
2021/12/05 04:31:03;;;;;;;6.05;2.40;;;;;;;11.01;82.83;100530.98;1847489;77;21133;-64
2021/12/05 04:33:32;;;;;;;7.58;2.72;;;;;;;11.01;82.80;100537.57;1847385;77;21043;-63
2021/12/05 04:36:01;;;;;;;2.10;1.65;;;;;;;11.04;82.74;100543.19;1851565;77;21178;-65
2021/12/05 04:38:30;;;;;;;7.25;2.22;;;;;;;11.05;82.67;100535.22;1855945;77;21109;-63
2021/12/05 04:40:59;;;;;;;6.58;2.30;;;;;;;11.08;82.65;100550.02;1851946;77;21052;-64
2021/12/05 04:43:35;;;;;;;5.17;2.60;;;;;;;11.11;82.52;100550.75;1849656;77;21120;-63
2021/12/05 04:45:58;;;;;;;3.62;2.00;;;;;;;11.15;82.37;100529.91;1848401;76;21089;-66
2021/12/05 04:48:27;;;;;;;8.25;1.95;;;;;;;11.20;82.12;100539.80;1849613;77;21075;-63
2021/12/05 04:50:56;;;;;;;8.63;2.90;;;;;;;11.27;81.83;100548.73;1849586;77;21080;-60
2021/12/05 04:53:27;;;;;;;5.85;2.65;;;;;;;11.31;81.58;100556.92;1851803;77;21182;-61
2021/12/05 04:55:56;;;;;;;5.00;2.50;;;;;;;11.33;81.38;100543.20;1853836;77;21143;-61
2021/12/05 04:58:25;;;;;;;4.53;2.33;;;;;;;11.37;81.20;100549.57;1853590;77;21495;-61
2021/12/05 05:00:57;;;;;;;5.15;2.17;;;;;;;11.41;81.08;100554.24;1853868;77;21072;-61
2021/12/05 05:03:28;;;;;;;6.97;2.80;;;;;;;11.44;80.87;100555.44;1851936;77;21040;-63
2021/12/05 05:06:05;;;;;;;8.40;2.60;;;;;;;11.46;80.80;100565.44;1849589;77;21081;-61
2021/12/05 05:08:31;;;;;;;6.62;2.70;;;;;;;11.50;80.71;100569.64;1849488;77;21591;-64
2021/12/05 05:11:02;;;;;;;6.42;2.55;;;;;;;11.53;80.24;100566.03;1849437;76;21515;-63
2021/12/05 05:13:32;;;;;;;5.17;2.98;;;;;;;11.55;80.21;100565.49;1849570;77;21052;-64
2021/12/05 05:16:04;;;;;;;7.70;2.12;;;;;;;11.58;80.12;100560.94;1849524;77;21056;-61
2021/12/05 05:18:43;;;;;;;4.70;2.45;;;;;;;11.61;79.98;100577.06;1851694;77;21040;-59
2021/12/05 05:21:27;;;;;;;4.53;2.15;;;;;;;11.62;80.01;100580.11;1852092;77;21116;-61
2021/12/05 05:24:04;;;;;;;5.55;2.50;;;;;;;11.64;79.87;100574.73;1850999;77;21029;-60
2021/12/05 05:43:05;;;;;;;4.87;2.92;;;;;;;11.74;79.27;100595.34;1862083;77;21166;-60
2021/12/05 05:50:32;;;;;;;5.33;2.80;;;;;;;11.85;79.07;100610.69;1844389;77;21064;-60
2021/12/05 05:53:01;;;;;;;6.30;2.85;;;;;;;11.87;79.07;100612.78;1844822;77;21195;-62
2021/12/05 05:55:30;;;;;;;8.35;2.27;;;;;;;11.90;79.04;100615.33;1844506;78;21076;-61
2021/12/05 06:00:34;;;;;;;5.85;2.10;;;;;;;11.93;78.61;100620.91;1844478;78;21056;-60
2021/12/05 06:03:23;;;;;;;4.78;2.02;;;;;;;11.92;78.44;100616.58;1844533;78;21126;-60
2021/12/05 06:05:55;;;;;;;5.35;2.27;;;;;;;11.91;78.27;100614.38;1844591;78;21081;-62
2021/12/05 06:08:26;;;;;;;8.65;2.67;;;;;;;11.94;78.25;100616.89;1844362;77;21122;-60
2021/12/05 06:10:57;;;;;;;11.70;4.67;;;;;;;11.99;78.35;100620.64;1844543;78;21094;-60
2021/12/05 06:13:27;;;;;;;6.15;2.72;;;;;;;12.03;78.33;100634.08;1844395;78;21116;-59
2021/12/05 06:15:57;;;;;;;6.17;4.22;;;;;;;12.05;78.32;100634.02;1844519;78;21055;-60
2021/12/05 06:18:26;;;;;;;6.53;2.98;;;;;;;12.05;78.26;100640.61;1845028;77;21092;-60
2021/12/05 06:20:55;;;;;;;8.43;3.20;;;;;;;12.05;78.19;100656.45;1844663;78;21107;-60
2021/12/05 06:23:25;;;;;;;10.10;4.08;;;;;;;12.04;78.27;100658.67;1844957;77;21888;-61
2021/12/05 06:25:54;;;;;;;7.97;2.75;;;;;;;12.02;78.20;100672.41;1844852;76;21504;-63
2021/12/05 06:28:34;;;;;;;7.03;2.83;;;;;;;12.02;78.30;100670.62;1844540;78;21663;-60
2021/12/05 06:47:13;;;;;;;3.27;2.12;;;;;;;11.88;78.08;100690.17;1849553;77;21158;-64
2021/12/05 06:49:44;;;;;;;4.35;2.20;;;;;;;11.84;78.04;100681.55;1849535;77;21032;-63
2021/12/05 06:52:13;;;;;;;5.37;2.05;;;;;;;11.86;77.98;100677.05;1849573;77;21110;-64
2021/12/05 06:54:42;;;;;;;6.37;1.92;;;;;;;11.96;77.94;100686.27;1849714;77;21106;-64
2021/12/05 06:57:11;;;;;;;7.03;2.52;;;;;;;12.11;77.54;100683.39;1849651;77;21072;-62
2021/12/05 06:59:41;;;;;;;11.90;4.20;;;;;;;12.24;77.32;100683.67;1849552;76;21641;-62
2021/12/05 07:02:11;;;;;;;14.18;5.53;;;;;;;12.30;77.11;100691.33;1849665;76;21209;-62
2021/12/05 07:07:19;;;;;;;18.45;7.17;;;;;;;12.41;76.77;100696.55;1853757;77;21052;-61
2021/12/05 07:09:42;;;;;;;27.55;9.50;;;;;;;12.48;76.55;100684.30;1852648;77;21139;-62
2021/12/05 07:20:48;;;;;;;12.07;4.90;;;;;;;12.51;75.70;100702.64;1853576;77;21182;-60
2021/12/05 07:23:38;;;;;;;5.00;2.25;;;;;;;12.48;75.54;100710.70;1821323;78;21502;-61
2021/12/05 07:25:54;;;;;;;4.83;2.00;;;;;;;12.46;75.58;100713.04;1818851;78;21143;-59
2021/12/05 07:42:20;;;;;;;5.45;2.67;;;;;;;13.11;73.27;100718.23;1853134;77;21124;-59
2021/12/05 07:44:43;;;;;;;5.70;2.45;;;;;;;13.17;73.10;100728.97;1852591;77;21064;-63
2021/12/05 07:47:18;;;;;;;3.35;2.08;;;;;;;13.18;72.88;100733.31;1853671;77;21068;-62
2021/12/05 07:49:42;;;;;;;4.12;2.12;;;;;;;13.24;72.70;100732.14;1853110;76;21139;-62
2021/12/05 07:52:16;;;;;;;4.58;1.65;;;;;;;13.37;72.51;100734.61;1853334;77;21439;-62
2021/12/05 07:54:46;;;;;;;4.40;1.62;;;;;;;13.57;72.27;100732.72;1853251;77;21053;-62
2021/12/05 07:57:23;;;;;;;6.78;1.98;;;;;;;13.53;71.69;100735.14;1853380;77;21056;-63
2021/12/05 08:00:14;;;;;;;3.08;1.35;;;;;;;13.47;71.82;100738.95;1853193;77;21077;-62
2021/12/05 08:16:30;;;;;;;6.28;2.37;;;;;;;13.17;72.48;100745.27;1847245;78;21027;-61
2021/12/05 08:18:59;;;;;;;5.92;2.40;;;;;;;13.11;72.58;100753.92;1847361;78;21108;-60
2021/12/05 08:21:28;;;;;;;9.63;2.50;;;;;;;13.04;72.66;100765.73;1847203;78;21034;-60
2021/12/05 08:23:56;;;;;;;2.17;1.50;;;;;;;13.01;72.73;100768.52;1847157;78;21641;-60
2021/12/05 08:26:32;;;;;;;4.20;1.40;;;;;;;12.96;72.81;100777.13;1847321;77;21075;-61
2021/12/05 08:29:06;;;;;;;2.45;1.32;;;;;;;12.88;72.93;100777.97;1856048;75;21113;-60
2021/12/05 08:31:39;;;;;;;6.90;1.90;;;;;;;12.81;73.14;100779.19;1856940;76;21113;-61
2021/12/05 08:34:20;;;;;;;4.17;1.70;;;;;;;12.74;73.26;100778.17;1856574;75;21062;-60
2021/12/05 08:42:28;;;;;;;5.00;3.20;;;;;;;12.45;73.88;100779.97;1861740;76;21038;-60
2021/12/05 09:26:18;;;;;;;3.80;1.40;;;;;;;11.40;74.91;100833.33;1855529;77;21069;-61
2021/12/05 09:29:13;;;;;;;2.92;1.30;;;;;;;11.45;74.85;100841.88;1835150;75;21128;-60
2021/12/05 09:40:04;;;;;;;2.52;1.15;;;;;;;11.36;74.27;100859.39;1828613;76;21095;-59
2021/12/05 10:01:27;;;;;;;2.22;1.40;;;;;;;11.30;74.28;100863.59;1829268;78;21087;-60
2021/12/05 10:02:08;;;;;;;3.33;1.77;;;;;;;11.23;74.00;100867.39;1829353;78;21023;-61
2021/12/05 10:07:20;;;;;;;4.45;2.77;;;;;;;11.15;73.98;100871.19;1836446;77;21027;-62
2021/12/05 10:12:36;;;;;;;1.57;0.78;;;;;;;11.17;73.89;100871.98;1837420;78;21054;-60
2021/12/05 10:15:02;;;;;;;2.70;1.55;;;;;;;11.20;73.80;100877.14;1841398;76;21611;-61
2021/12/05 10:17:51;;;;;;;1.95;1.20;;;;;;;11.16;73.57;100883.93;1838653;76;21050;-62
2021/12/05 10:20:33;;;;;;;1.70;1.15;;;;;;;11.15;73.68;100880.41;1848512;76;21189;-63
2021/12/05 10:37:20;;;;;;;3.60;1.35;;;;;;;11.28;73.05;100903.66;1944277;74;21027;-61
2021/12/05 10:39:48;;;;;;;2.33;1.40;;;;;;;11.26;72.93;100909.45;1944454;73;21050;-63
2021/12/05 10:42:40;;;;;;;5.03;1.72;;;;;;;11.23;72.83;100909.09;1930680;73;21577;-63
2021/12/05 10:45:36;;;;;;;4.28;1.77;;;;;;;11.10;72.73;100907.43;1910462;75;21007;-58
2021/12/05 10:48:07;;;;;;;4.65;2.22;;;;;;;11.02;73.01;100909.48;1910176;75;21414;-60
2021/12/05 10:50:48;;;;;;;6.12;3.15;;;;;;;11.01;73.06;100903.36;1910766;75;21192;-61
2021/12/05 10:53:28;;;;;;;4.45;2.35;;;;;;;11.00;73.10;100916.59;1924516;74;21094;-60
2021/12/05 10:56:03;;;;;;;5.03;2.20;;;;;;;10.93;73.08;100923.86;1944416;74;20999;-60
2021/12/05 10:58:34;;;;;;;6.60;2.85;;;;;;;10.91;73.05;100923.52;1944015;74;21007;-60
2021/12/05 11:01:15;;;;;;;4.33;2.40;;;;;;;10.92;72.92;100931.38;1943511;73;21470;-59
2021/12/05 11:03:45;;;;;;;3.22;1.70;;;;;;;10.82;72.91;100934.78;1932200;74;21462;-62
2021/12/05 11:06:28;;;;;;;2.50;1.80;;;;;;;10.79;72.80;100932.28;1930699;74;21113;-62
2021/12/05 11:09:00;;;;;;;6.65;2.70;;;;;;;10.72;72.88;100937.38;1936473;74;21113;-61
2021/12/05 11:11:29;;;;;;;3.12;2.40;;;;;;;10.67;72.81;100942.41;1925294;72;21520;-62
2021/12/05 11:13:58;;;;;;;3.85;1.80;;;;;;;10.70;72.75;100944.48;1908861;75;21208;-59
2021/12/05 11:16:56;;;;;;;2.85;2.00;;;;;;;10.73;72.69;100945.66;1908896;75;21095;-60
2021/12/05 11:19:27;;;;;;;3.70;2.35;;;;;;;10.71;72.58;100947.49;1908796;75;21034;-60
2021/12/05 11:22:10;;;;;;;3.95;2.10;;;;;;;10.72;72.54;100946.59;1908749;75;21035;-66
2021/12/05 11:24:44;;;;;;;4.45;2.10;;;;;;;10.84;72.38;100952.33;1941066;74;21034;-64
2021/12/05 11:27:33;;;;;;;2.95;2.20;;;;;;;10.91;72.13;100953.82;1938287;74;21124;-63
2021/12/05 11:30:14;;;;;;;5.10;2.67;;;;;;;10.87;71.99;100965.39;1922611;75;21118;-64
2021/12/05 11:32:45;;;;;;;4.17;2.65;;;;;;;10.79;72.09;100955.99;1922578;75;21097;-63
2021/12/05 11:35:17;;;;;;;4.90;2.85;;;;;;;10.81;72.04;100959.89;1922602;75;21051;-64
2021/12/05 11:37:51;;;;;;;4.90;3.27;;;;;;;10.79;71.93;100965.21;1922643;74;21503;-64
2021/12/05 11:40:22;;;;;;;5.87;3.10;;;;;;;10.77;71.94;100961.78;1922515;74;21108;-65
2021/12/05 11:43:00;;;;;;;5.03;3.40;;;;;;;10.69;71.94;100965.59;1922620;75;21128;-64
2021/12/05 11:45:31;;;;;;;4.60;3.60;;;;;;;10.69;71.93;100968.23;1919333;74;21078;-65
2021/12/05 11:48:02;;;;;;;6.08;3.37;;;;;;;10.59;71.79;100974.29;1922552;74;21069;-64
2021/12/05 11:50:33;;;;;;;5.10;3.33;;;;;;;10.51;71.90;100969.73;1919914;74;21476;-63
2021/12/05 11:53:03;;;;;;;7.12;4.08;;;;;;;10.47;71.99;100972.08;1922452;75;21116;-66
2021/12/05 11:55:33;;;;;;;4.67;3.33;;;;;;;10.40;71.98;100974.05;1922707;75;21069;-65
2021/12/05 11:58:02;;;;;;;7.05;3.40;;;;;;;10.39;71.98;100972.34;1922561;75;21054;-64
2021/12/05 12:00:32;;;;;;;7.62;4.20;;;;;;;10.37;71.93;100980.30;1922559;75;21495;-64
2021/12/05 12:03:01;;;;;;;5.65;4.30;;;;;;;10.29;71.88;100974.41;1922709;75;21462;-63
2021/12/05 12:05:32;;;;;;;6.17;3.98;;;;;;;10.25;72.23;100988.56;1922553;75;21069;-64
2021/12/05 12:08:07;;;;;;;7.53;4.67;;;;;;;10.20;72.26;100985.25;1922342;74;21093;-62
2021/12/05 12:10:58;;;;;;;11.08;4.90;;;;;;;10.22;72.22;100986.91;1922022;74;21038;-61
2021/12/05 12:13:25;;;;;;;6.50;4.42;;;;;;;10.27;72.10;100993.31;1925498;74;21052;-65
2021/12/05 12:16:01;;;;;;;5.72;3.35;;;;;;;10.21;71.99;101001.42;1932149;74;21116;-65
2021/12/05 12:18:39;;;;;;;12.28;5.50;;;;;;;10.19;71.85;100996.67;1932166;74;21140;-67
2021/12/05 12:21:11;;;;;;;7.37;4.35;;;;;;;10.07;71.89;100999.70;1932181;74;21100;-62
2021/12/05 12:23:41;;;;;;;7.55;4.33;;;;;;;9.99;72.20;101001.27;1932283;73;21080;-61
2021/12/05 12:26:12;;;;;;;8.63;5.55;;;;;;;10.00;72.23;101005.17;1932213;74;21130;-63
2021/12/05 12:28:41;;;;;;;12.40;4.50;;;;;;;10.02;72.11;101000.72;1932200;73;21175;-62
2021/12/05 12:31:13;;;;;;;8.63;4.65;;;;;;;10.01;71.93;101009.53;1938363;74;21047;-62
2021/12/05 12:33:52;;;;;;;6.42;4.53;;;;;;;9.91;71.96;101013.36;1966664;73;21101;-62
2021/12/05 12:36:35;;;;;;;7.85;4.85;;;;;;;9.85;72.20;101019.67;1972882;72;21067;-64
2021/12/05 12:39:20;;;;;;;6.83;4.30;;;;;;;9.80;72.41;101022.05;1971582;72;21047;-62
2021/12/05 12:42:09;;;;;;;7.65;4.67;;;;;;;9.76;72.56;101034.89;1970775;73;21043;-65
2021/12/05 12:44:37;;;;;;;10.38;5.03;;;;;;;9.73;72.81;101030.56;1924964;74;21124;-63
2021/12/05 12:47:07;;;;;;;9.73;5.92;;;;;;;9.77;72.68;101030.88;1938451;74;21099;-63
2021/12/05 12:49:39;;;;;;;7.00;4.72;;;;;;;9.78;72.55;101038.33;1938188;74;21045;-62
2021/12/05 12:52:18;;;;;;;8.28;4.80;;;;;;;9.72;72.43;101031.49;1938501;74;21033;-63
2021/12/05 12:54:55;;;;;;;9.78;5.05;;;;;;;9.59;72.35;101033.63;1938229;73;21037;-60
2021/12/05 12:57:31;;;;;;;11.78;6.22;;;;;;;9.45;72.50;101043.23;1934906;74;21020;-63
2021/12/05 13:00:07;;;;;;;;;;;;;;;9.39;72.54;101042.11;1953459;73;21097;-63
2021/12/05 13:11:01;;;;;;;8.93;5.58;;;;;;;9.35;72.75;101063.25;1920971;75;21063;-60
2021/12/05 13:13:32;;;;;;;9.68;5.33;;;;;;;9.33;72.84;101065.92;1920085;74;21532;-60
2021/12/05 13:16:18;;;;;;;8.55;5.22;;;;;;;9.26;73.04;101062.62;1921034;75;21050;-59
2021/12/05 13:18:50;;;;;;;11.55;5.42;;;;;;;9.23;73.14;101062.70;1920830;75;21485;-60
2021/12/05 13:21:30;;;;;;;13.70;6.53;;;;;;;9.22;73.07;101068.88;1920230;74;21153;-61
2021/12/05 13:23:58;;;;;;;11.33;5.62;;;;;;;9.25;72.99;101076.65;1920974;75;21042;-65
2021/12/05 13:26:36;;;;;;;8.70;5.30;;;;;;;9.34;73.10;101083.88;1920750;75;21066;-61
2021/12/05 13:29:26;;;;;;;12.75;5.62;;;;;;;9.40;72.93;101091.58;1913306;74;21517;-60
2021/12/05 13:32:15;;;;;;;7.78;5.33;;;;;;;9.35;73.07;101090.84;1910981;75;21043;-60
2021/12/05 13:34:47;;;;;;;10.13;5.70;;;;;;;9.26;73.20;101096.78;1911108;75;21501;-60
2021/12/05 13:37:22;;;;;;;6.50;4.30;;;;;;;9.22;73.20;101099.52;1911025;75;21074;-62
2021/12/05 13:40:06;;;;;;;8.90;4.85;;;;;;;9.20;73.19;101100.91;1911167;75;21540;-61
2021/12/05 13:42:46;;;;;;;10.25;4.90;;;;;;;9.13;73.25;101106.34;1911254;75;21141;-59
2021/12/05 13:45:29;;;;;;;8.23;4.17;;;;;;;9.03;73.44;101121.50;1911133;75;21148;-60
2021/12/05 13:48:01;;;;;;;10.25;5.87;;;;;;;9.03;73.40;101117.56;1911214;75;21117;-60
2021/12/05 13:50:33;;;;;;;9.08;5.55;;;;;;;8.96;73.44;101123.41;1911086;75;21544;-60
2021/12/05 13:53:10;;;;;;;11.00;5.17;;;;;;;8.93;73.53;101123.94;1911312;75;21165;-59
2021/12/05 13:56:01;;;;;;;10.50;5.25;;;;;;;8.89;73.60;101133.23;1911001;75;21564;-58
2021/12/05 13:58:38;;;;;;;8.80;5.72;;;;;;;8.84;73.81;101136.88;1910643;75;21056;-57
2021/12/05 14:01:24;;;;;;;9.98;5.80;;;;;;;8.81;73.87;101135.17;1911243;75;21007;-60
2021/12/05 14:03:59;;;;;;;7.80;4.90;;;;;;;8.88;73.73;101136.75;1912404;75;21442;-58
2021/12/05 14:06:58;;;;;;;12.15;6.50;;;;;;;8.87;73.64;101135.04;1912831;75;21140;-61
2021/12/05 14:12:29;;;;;;;9.75;4.67;;;;;;;8.93;73.42;101143.64;1849782;76;21180;-64
2021/12/05 14:15:07;;;;;;;7.15;4.75;;;;;;;8.95;73.27;101147.12;1842983;78;21062;-64
2021/12/05 14:17:40;;;;;;;9.33;5.12;;;;;;;8.98;73.12;101148.33;1850857;77;21074;-62
2021/12/05 14:20:14;;;;;;;8.28;4.92;;;;;;;9.00;73.00;101150.45;1857046;76;21048;-64
2021/12/05 14:22:46;;;;;;;9.03;4.50;;;;;;;9.00;73.00;101155.71;1885272;76;21088;-66
2021/12/05 14:25:17;;;;;;;10.53;4.90;;;;;;;8.98;73.11;101150.95;1870148;76;21074;-68
2021/12/05 14:27:58;;;;;;;10.70;5.62;;;;;;;8.95;73.21;101151.91;1864678;77;21054;-70
2021/12/05 14:30:30;;;;;;;14.47;7.95;;;;;;;8.95;73.32;101158.94;1862230;76;21039;-63
2021/12/05 14:33:00;;;;;;;10.58;5.22;;;;;;;8.95;73.33;101159.78;1816814;79;21135;-64
2021/12/05 14:35:35;;;;;;;12.15;5.72;;;;;;;8.85;73.55;101156.55;1797615;80;21203;-62
2021/12/05 14:38:06;;;;;;;9.73;5.47;;;;;;;8.88;73.55;101166.95;1808079;77;21088;-58
2021/12/05 14:40:37;;;;;;;10.18;5.10;;;;;;;8.91;73.50;101162.52;1831208;77;21064;-65
2021/12/05 14:43:09;;;;;;;8.30;5.17;;;;;;;8.87;73.60;101159.98;1882153;75;21116;-64
2021/12/05 14:45:41;;;;;;;9.03;5.62;;;;;;;8.85;73.71;101165.73;1885307;76;21034;-63
2021/12/05 14:48:15;;;;;;;11.75;7.50;;;;;;;8.83;73.80;101169.28;1882608;76;21160;-65
2021/12/05 14:50:45;;;;;;;10.75;6.33;;;;;;;8.82;73.86;101180.23;1854798;76;21435;-59
2021/12/05 14:53:18;;;;;;;10.05;5.58;;;;;;;8.86;73.68;101181.03;1847728;78;21106;-64
2021/12/05 14:55:49;;;;;;;10.20;5.25;;;;;;;8.84;73.60;101188.09;1847560;77;21096;-66
2021/12/05 14:58:19;;;;;;;10.15;4.95;;;;;;;8.87;73.44;101190.19;1878098;76;21025;-61
2021/12/05 15:00:52;;;;;;;7.72;3.85;;;;;;;8.91;73.19;101188.78;1877312;76;21046;-62
2021/12/05 15:03:23;;;;;;;6.40;3.50;;;;;;;8.90;73.08;101193.17;1873435;76;21034;-60
2021/12/05 15:05:58;;;;;;;5.58;3.37;;;;;;;8.85;73.12;101187.16;1873442;76;21035;-61
2021/12/05 15:08:29;;;;;;;4.83;2.92;;;;;;;8.84;73.10;101204.70;1871101;76;21477;-61
2021/12/05 15:11:19;;;;;;;6.25;2.87;;;;;;;8.79;73.04;101206.56;1871846;76;21051;-61
2021/12/05 15:13:48;;;;;;;6.62;3.42;;;;;;;8.72;73.08;101201.50;1812263;79;21156;-60
2021/12/05 15:16:17;;;;;;;5.55;3.08;;;;;;;8.71;72.91;101212.92;1814489;79;21516;-61
2021/12/05 15:18:46;;;;;;;7.87;4.47;;;;;;;8.74;72.89;101217.62;1814372;79;21066;-60
2021/12/05 15:21:15;;;;;;;6.58;3.50;;;;;;;8.77;72.91;101209.67;1814831;79;21489;-62
2021/12/05 15:23:44;;;;;;;6.17;3.20;;;;;;;8.80;72.86;101210.92;1804697;79;21466;-61
2021/12/05 15:26:14;;;;;;;5.47;3.00;;;;;;;8.84;72.73;101211.72;1803861;79;21564;-60
2021/12/05 15:28:43;;;;;;;7.97;4.00;;;;;;;8.86;72.68;101212.08;1803832;78;21083;-64
2021/12/05 15:31:12;;;;;;;7.42;3.30;;;;;;;8.88;72.64;101208.97;1798077;79;21030;-62
2021/12/05 15:33:41;;;;;;;6.10;3.10;;;;;;;8.89;72.59;101215.95;1792937;80;21536;-63
2021/12/05 15:36:10;;;;;;;5.62;3.17;;;;;;;8.81;72.70;101220.52;1797532;79;21539;-60
2021/12/05 15:38:39;;;;;;;5.37;3.15;;;;;;;8.71;72.91;101229.98;1815588;78;21492;-63
2021/12/05 15:41:15;;;;;;;5.35;3.20;;;;;;;8.68;73.00;101234.38;1815513;79;21089;-60
2021/12/05 15:43:43;;;;;;;7.55;4.05;;;;;;;8.73;72.90;101234.29;1815741;78;21065;-61
2021/12/05 15:46:13;;;;;;;6.62;3.40;;;;;;;8.75;72.83;101240.36;1815456;79;21136;-62
2021/12/05 15:48:49;;;;;;;5.17;3.20;;;;;;;8.77;72.80;101237.25;1815294;79;21053;-63
2021/12/05 15:51:13;;;;;;;6.33;3.40;;;;;;;8.81;72.70;101238.89;1814674;79;21508;-60
2021/12/05 15:53:43;;;;;;;7.87;4.08;;;;;;;8.84;72.61;101234.04;1815462;79;21139;-62
2021/12/05 15:56:14;;;;;;;5.90;3.58;;;;;;;8.82;72.51;101242.41;1815500;78;21554;-64
2021/12/05 15:58:46;;;;;;;7.97;3.58;;;;;;;8.78;72.49;101249.49;1815560;79;21170;-62
2021/12/05 16:01:18;;;;;;;6.22;3.98;;;;;;;8.82;72.34;101251.14;1815390;79;21062;-62
2021/12/05 16:03:50;;;;;;;6.28;3.62;;;;;;;8.77;72.42;101253.00;1815448;79;21081;-64
2021/12/05 16:06:21;;;;;;;6.47;3.15;;;;;;;8.69;72.59;101251.02;1814034;79;21075;-63
2021/12/05 16:08:51;;;;;;;5.67;3.62;;;;;;;8.67;72.66;101254.98;1810352;78;21042;-60
2021/12/05 16:11:21;;;;;;;6.45;3.70;;;;;;;8.69;72.58;101249.70;1810397;79;21038;-65
2021/12/05 16:13:53;;;;;;;6.08;3.87;;;;;;;8.71;72.51;101250.53;1854736;76;21147;-62
2021/12/05 16:16:30;;;;;;;10.08;5.03;;;;;;;8.72;72.47;101259.27;1866590;76;21495;-61
2021/12/05 16:19:01;;;;;;;6.83;4.40;;;;;;;8.73;72.40;101257.92;1866649;76;21024;-62
2021/12/05 16:21:33;;;;;;;8.63;4.60;;;;;;;8.71;72.40;101264.97;1866559;77;21083;-62
2021/12/05 16:24:14;;;;;;;11.70;5.47;;;;;;;8.71;72.29;101261.03;1868676;76;21074;-62
2021/12/05 16:26:45;;;;;;;10.98;5.83;;;;;;;8.68;72.30;101266.34;1849556;76;21125;-63
2021/12/05 16:29:17;;;;;;;12.50;6.78;;;;;;;8.67;72.33;101265.95;1843692;76;21165;-62
2021/12/05 16:31:52;;;;;;;12.68;6.30;;;;;;;8.64;72.44;101268.63;1824857;78;21087;-72
2021/12/05 16:34:22;;;;;;;9.78;6.08;;;;;;;8.56;72.65;101268.81;1817778;78;21134;-68
2021/12/05 16:37:09;;;;;;;13.72;7.53;;;;;;;8.49;72.87;101269.38;1848018;75;21040;-64